createdAt,value
2022-11-26T00:02:42.788Z,1.05
2022-11-26T00:05:33.688Z,0.68
2022-11-26T00:08:56.760Z,0.50
2022-11-26T00:11:27.689Z,1.25
2022-11-26T00:13:57.784Z,0.60
2022-11-26T00:16:24.960Z,0.95
2022-11-26T00:18:52.244Z,0.80
2022-11-26T00:21:26.046Z,0.80
2022-11-26T00:23:54.826Z,1.02
2022-11-26T00:26:24.939Z,0.90
2022-11-26T00:28:56.014Z,0.85
2022-11-26T00:31:24.359Z,1.00
2022-11-26T00:33:51.848Z,1.17
2022-11-26T00:36:27.861Z,0.77
2022-11-26T00:39:21.041Z,1.42
2022-11-26T00:41:52.620Z,1.20
2022-11-26T00:44:22.888Z,0.93
2022-11-26T00:46:50.793Z,0.77
2022-11-26T00:49:19.451Z,0.73
2022-11-26T00:51:47.248Z,1.00
2022-11-26T00:54:18.413Z,0.90
2022-11-26T00:56:47.058Z,1.42
2022-11-26T00:59:17.777Z,1.23
2022-11-26T01:01:45.258Z,1.08
2022-11-26T01:04:12.532Z,1.80
2022-11-26T01:06:42.651Z,1.30
2022-11-26T01:09:17.532Z,1.58
2022-11-26T01:11:46.440Z,1.02
2022-11-26T01:14:20.025Z,1.92
2022-11-26T01:16:48.635Z,1.25
2022-11-26T01:19:16.626Z,1.52
2022-11-26T01:21:44.023Z,1.83
2022-11-26T01:24:11.804Z,1.13
2022-11-26T01:26:41.297Z,1.27
2022-11-26T01:29:20.435Z,1.00
2022-11-26T01:31:48.074Z,1.70
2022-11-26T01:34:15.606Z,1.58
2022-11-26T01:36:43.009Z,1.52
2022-11-26T01:39:13.114Z,1.88
2022-11-26T01:42:01.120Z,1.50
2022-11-26T01:44:31.345Z,1.50
2022-11-26T01:46:59.523Z,1.52
2022-11-26T01:49:27.871Z,0.93
2022-11-26T01:52:05.172Z,1.50
2022-11-26T01:54:35.129Z,1.15
2022-11-26T01:57:11.872Z,1.00
2022-11-26T01:59:43.333Z,1.83
2022-11-26T02:02:11.257Z,1.77
2022-11-26T02:04:43.465Z,1.40
2022-11-26T02:07:10.769Z,1.58
2022-11-26T02:09:38.104Z,1.40
2022-11-26T02:12:05.657Z,1.33
2022-11-26T02:14:39.719Z,1.63
2022-11-26T02:17:27.019Z,2.95
2022-11-26T02:20:21.919Z,1.50
2022-11-26T02:23:28.668Z,1.23
2022-11-26T02:26:32.402Z,1.00
2022-11-26T02:29:15.912Z,1.60
2022-11-26T02:31:49.193Z,1.30
2022-11-26T02:34:49.502Z,2.10
2022-11-26T02:37:31.243Z,1.40
2022-11-26T02:39:58.537Z,1.40
2022-11-26T02:42:28.761Z,1.50
2022-11-26T02:45:00.521Z,1.90
2022-11-26T02:47:29.364Z,1.42
2022-11-26T02:49:59.061Z,2.63
2022-11-26T02:52:28.481Z,1.27
2022-11-26T02:54:57.013Z,1.27
2022-11-26T02:57:29.552Z,2.03
2022-11-26T02:59:57.153Z,1.55
2022-11-26T03:02:34.738Z,2.85
2022-11-26T03:05:03.578Z,1.48
2022-11-26T03:07:32.661Z,2.58
2022-11-26T03:10:02.088Z,1.80
2022-11-26T03:12:30.198Z,1.83
2022-11-26T03:14:57.701Z,2.42
2022-11-26T03:17:24.956Z,1.50
2022-11-26T03:19:52.933Z,1.67
2022-11-26T03:22:20.060Z,2.05
2022-11-26T03:24:47.329Z,1.60
2022-11-26T03:27:14.585Z,1.90
2022-11-26T03:29:41.832Z,1.40
2022-11-26T03:32:09.417Z,1.55
2022-11-26T03:34:36.920Z,1.95
2022-11-26T03:37:04.319Z,2.33
2022-11-26T03:39:31.382Z,1.25
2022-11-26T03:41:58.690Z,1.65
2022-11-26T03:44:25.794Z,1.55
2022-11-26T03:46:52.964Z,1.40
2022-11-26T03:49:20.244Z,1.50
2022-11-26T03:51:47.382Z,1.65
2022-11-26T03:54:14.917Z,1.38
2022-11-26T03:56:42.132Z,1.30
2022-11-26T03:59:09.312Z,1.60
2022-11-26T04:01:36.851Z,1.30
2022-11-26T04:04:04.652Z,1.48
2022-11-26T04:06:32.134Z,1.33
2022-11-26T04:08:59.249Z,2.15
2022-11-26T04:11:26.508Z,2.15
2022-11-26T04:13:53.593Z,1.45
2022-11-26T04:16:21.066Z,1.75
2022-11-26T04:18:48.406Z,2.08
2022-11-26T04:21:15.568Z,1.80
2022-11-26T04:23:42.674Z,1.77
2022-11-26T04:26:09.825Z,1.58
2022-11-26T04:28:36.996Z,1.33
2022-11-26T04:31:04.457Z,1.33
2022-11-26T04:33:31.776Z,1.77
2022-11-26T04:35:58.982Z,1.05
2022-11-26T04:38:26.278Z,1.88
2022-11-26T04:40:54.104Z,1.65
2022-11-26T04:43:21.763Z,1.48
2022-11-26T04:45:49.021Z,1.70
2022-11-26T04:48:16.545Z,2.03
2022-11-26T04:50:43.727Z,1.77
2022-11-26T04:53:10.958Z,1.48
2022-11-26T04:55:38.209Z,1.38
2022-11-26T04:58:05.357Z,1.23
2022-11-26T05:00:32.516Z,2.45
2022-11-26T05:02:59.794Z,2.20
2022-11-26T05:05:26.947Z,1.40
2022-11-26T05:07:54.305Z,1.30
2022-11-26T05:10:21.648Z,1.30
2022-11-26T05:12:48.787Z,1.10
2022-11-26T05:15:16.167Z,2.10
2022-11-26T05:17:43.354Z,1.83
2022-11-26T05:20:11.228Z,1.50
2022-11-26T05:22:38.443Z,1.83
2022-11-26T05:25:06.045Z,2.10
2022-11-26T05:27:33.206Z,2.10
2022-11-26T05:30:00.413Z,1.48
2022-11-26T05:32:27.813Z,1.60
2022-11-26T05:34:59.827Z,2.17
2022-11-26T05:37:27.870Z,1.20
2022-11-26T05:39:55.101Z,1.50
2022-11-26T05:42:22.315Z,1.70
2022-11-26T05:44:49.568Z,1.50
2022-11-26T05:47:16.676Z,1.15
2022-11-26T05:49:43.978Z,1.38
2022-11-26T05:52:11.278Z,1.13
2022-11-26T05:54:38.820Z,1.30
2022-11-26T05:57:06.547Z,1.65
2022-11-26T05:59:33.726Z,1.35
2022-11-26T06:02:00.919Z,1.15
2022-11-26T06:04:28.128Z,1.23
2022-11-26T06:06:55.406Z,1.20
2022-11-26T06:09:22.803Z,1.00
2022-11-26T06:11:51.038Z,0.93
2022-11-26T06:14:18.797Z,1.42
2022-11-26T06:16:46.007Z,0.93
2022-11-26T06:19:13.576Z,1.08
2022-11-26T06:21:40.709Z,1.33
2022-11-26T06:24:07.967Z,1.33
2022-11-26T06:26:35.215Z,1.48
2022-11-26T06:29:02.449Z,1.17
2022-11-26T06:31:29.865Z,1.10
2022-11-26T06:33:57.369Z,1.27
2022-11-26T06:36:24.947Z,1.10
2022-11-26T06:38:52.260Z,1.10
2022-11-26T06:41:19.612Z,1.13
2022-11-26T06:43:46.790Z,1.20
2022-11-26T06:46:14.195Z,1.13
2022-11-26T06:48:41.645Z,1.05
2022-11-26T06:51:11.718Z,1.08
2022-11-26T06:53:39.430Z,0.98
2022-11-26T06:56:14.971Z,1.67
2022-11-26T06:58:46.650Z,1.67
2022-11-26T07:01:18.199Z,0.93
2022-11-26T07:03:45.953Z,1.23
2022-11-26T07:06:22.292Z,1.33
2022-11-26T07:08:49.932Z,1.17
2022-11-26T07:11:17.861Z,1.08
2022-11-26T07:13:45.259Z,1.08
2022-11-26T07:16:13.348Z,1.25
2022-11-26T07:18:40.712Z,1.30
2022-11-26T07:21:13.125Z,1.55
2022-11-26T07:23:41.049Z,1.13
2022-11-26T07:26:09.674Z,1.58
2022-11-26T07:28:37.421Z,1.67
2022-11-26T07:31:16.422Z,1.38
2022-11-26T07:33:45.140Z,1.30
2022-11-26T07:36:25.711Z,1.20
2022-11-26T07:38:58.223Z,0.85
2022-11-26T07:41:26.876Z,1.25
2022-11-26T07:43:54.621Z,1.85
2022-11-26T07:46:25.948Z,1.35
2022-11-26T07:48:54.552Z,1.00
2022-11-26T07:51:27.522Z,1.20
2022-11-26T07:53:55.607Z,1.17
2022-11-26T07:56:22.808Z,1.00
2022-11-26T07:58:50.013Z,1.02
2022-11-26T08:01:20.663Z,0.90
2022-11-26T08:03:50.103Z,1.00
2022-11-26T08:06:20.015Z,1.58
2022-11-26T08:08:48.127Z,1.50
2022-11-26T08:11:20.966Z,1.23
2022-11-26T08:13:49.579Z,1.38
2022-11-26T08:16:16.848Z,1.38
2022-11-26T08:18:44.102Z,1.15
2022-11-26T08:21:11.323Z,1.25
2022-11-26T08:23:40.107Z,1.35
2022-11-26T08:26:23.915Z,1.25
2022-11-26T08:28:53.342Z,1.48
2022-11-26T08:31:21.018Z,1.88
2022-11-26T08:33:48.456Z,2.03
2022-11-26T08:36:15.697Z,1.40
2022-11-26T08:38:42.927Z,1.40
2022-11-26T08:41:13.947Z,2.35
2022-11-26T08:46:29.321Z,3.08
2022-11-26T08:48:57.784Z,1.88
2022-11-26T08:51:25.642Z,1.60
2022-11-26T08:53:53.801Z,2.67
2022-11-26T08:56:21.060Z,1.92
2022-11-26T08:58:49.267Z,1.73
2022-11-26T09:01:22.453Z,2.00
2022-11-26T09:03:51.428Z,2.50
2022-11-26T09:06:20.647Z,2.67
2022-11-26T09:09:06.485Z,3.15
2022-11-26T09:11:36.690Z,2.65
2022-11-26T09:14:04.654Z,1.95
2022-11-26T09:16:32.639Z,3.72
2022-11-26T09:19:01.494Z,2.42
2022-11-26T09:21:29.222Z,2.90
2022-11-26T09:23:56.550Z,1.85
2022-11-26T09:26:24.501Z,2.35
2022-11-26T09:28:51.996Z,2.38
2022-11-26T09:31:19.880Z,1.75
2022-11-26T09:33:47.496Z,1.50
2022-11-26T09:36:16.165Z,1.67
2022-11-26T09:38:43.744Z,2.78
2022-11-26T09:41:16.985Z,1.92
2022-11-26T09:44:00.643Z,1.50
2022-11-26T09:47:10.343Z,1.50
2022-11-26T09:49:47.039Z,1.95
2022-11-26T09:52:18.935Z,2.72
2022-11-26T09:54:48.330Z,1.45
2022-11-26T09:57:37.398Z,1.83
2022-11-26T10:00:18.286Z,1.08
2022-11-26T10:02:45.795Z,2.08
2022-11-26T10:05:15.907Z,1.65
2022-11-26T10:08:14.532Z,1.40
2022-11-26T10:10:57.869Z,1.25
2022-11-26T10:13:34.336Z,2.03
2022-11-26T10:16:14.978Z,2.78
2022-11-26T10:18:58.987Z,2.30
2022-11-26T10:24:35.213Z,2.13
2022-11-26T10:27:16.793Z,2.00
2022-11-26T10:29:50.098Z,1.67
2022-11-26T10:32:25.746Z,2.35
2022-11-26T10:34:58.398Z,1.98
2022-11-26T10:37:27.725Z,1.88
2022-11-26T10:40:16.787Z,1.88
2022-11-26T10:42:52.260Z,2.53
2022-11-26T10:45:23.466Z,1.92
2022-11-26T10:48:23.960Z,2.33
2022-11-26T10:51:16.696Z,1.75
2022-11-26T10:54:00.753Z,1.88
2022-11-26T10:56:41.462Z,2.13
2022-11-26T10:59:36.392Z,1.73
2022-11-26T11:02:24.582Z,1.75
2022-11-26T11:04:55.169Z,1.65
2022-11-26T11:07:41.833Z,1.30
2022-11-26T11:10:09.069Z,1.80
2022-11-26T11:12:40.704Z,1.80
2022-11-26T11:15:56.828Z,1.65
2022-11-26T11:18:25.904Z,2.40
2022-11-26T11:21:01.581Z,1.95
2022-11-26T11:24:00.213Z,2.78
2022-11-26T11:26:23.997Z,1.58
2022-11-26T11:32:34.477Z,1.52
2022-11-26T11:35:20.925Z,1.42
2022-11-26T11:37:55.889Z,2.28
2022-11-26T11:40:27.788Z,2.47
2022-11-26T11:43:05.202Z,1.40
2022-11-26T11:54:04.046Z,2.00
2022-11-26T11:56:44.764Z,2.08
2022-11-26T11:59:48.147Z,2.17
2022-11-26T12:02:32.402Z,2.10
2022-11-26T12:05:26.962Z,2.08
2022-11-26T12:08:18.496Z,2.10
2022-11-26T12:11:22.352Z,2.85
2022-11-26T12:13:57.370Z,2.28
2022-11-26T12:16:29.148Z,2.78
2022-11-26T12:19:24.433Z,3.08
2022-11-26T12:21:58.277Z,2.30
2022-11-26T12:24:46.388Z,2.08
2022-11-26T12:27:22.949Z,2.42
2022-11-26T12:29:55.590Z,2.22
2022-11-26T12:32:38.275Z,2.47
2022-11-26T12:35:12.684Z,2.08
2022-11-26T12:37:42.393Z,2.35
2022-11-26T12:40:30.361Z,1.92
2022-11-26T12:43:28.511Z,2.03
2022-11-26T12:49:16.496Z,2.60
2022-11-26T12:51:59.427Z,3.15
2022-11-26T12:54:47.296Z,2.22
2022-11-26T12:57:36.889Z,2.45
2022-11-26T13:00:13.560Z,2.60
2022-11-26T13:02:44.024Z,2.17
2022-11-26T13:05:41.646Z,1.30
2022-11-26T13:08:20.881Z,1.40
2022-11-26T13:11:05.908Z,1.35
2022-11-26T13:13:59.189Z,2.22
2022-11-26T13:16:53.372Z,1.63
2022-11-26T13:19:33.294Z,1.67
2022-11-26T13:22:31.175Z,2.08
2022-11-26T13:25:29.528Z,2.85
2022-11-26T13:28:07.361Z,1.52
2022-11-26T13:31:15.847Z,1.83
2022-11-26T13:33:43.190Z,1.70
2022-11-26T13:36:44.062Z,2.55
2022-11-26T13:39:36.348Z,1.80
2022-11-26T13:42:14.481Z,2.17
2022-11-26T13:45:09.509Z,1.92
2022-11-26T13:47:51.759Z,2.13
2022-11-26T13:50:26.991Z,2.13
2022-11-26T13:56:55.583Z,1.77
2022-11-26T13:59:28.886Z,1.33
2022-11-26T14:02:01.096Z,2.08
2022-11-26T14:04:28.493Z,1.90
2022-11-26T14:07:04.739Z,1.95
2022-11-26T14:09:53.525Z,1.63
2022-11-26T14:12:23.086Z,2.10
2022-11-26T14:14:53.446Z,2.88
2022-11-26T14:17:31.161Z,2.17
2022-11-26T14:20:01.884Z,2.45
2022-11-26T14:22:31.972Z,1.50
2022-11-26T14:25:02.254Z,2.88
2022-11-26T14:27:43.826Z,2.25
2022-11-26T14:30:19.333Z,2.50
2022-11-26T14:33:05.702Z,3.28
2022-11-26T14:35:40.683Z,2.45
2022-11-26T14:38:27.177Z,2.47
2022-11-26T14:41:01.646Z,1.80
2022-11-26T14:43:29.844Z,3.50
2022-11-26T14:46:17.611Z,2.65
2022-11-26T14:48:47.915Z,2.28
2022-11-26T14:51:26.703Z,2.42
2022-11-26T14:53:55.679Z,2.55
2022-11-26T14:56:25.559Z,2.30
2022-11-26T14:58:56.339Z,3.08
2022-11-26T15:01:27.422Z,4.07
2022-11-26T15:04:06.989Z,2.92
2022-11-26T15:06:39.741Z,3.40
2022-11-26T15:09:36.613Z,2.22
2022-11-26T15:12:11.454Z,3.10
2022-11-26T15:14:50.503Z,3.63
2022-11-26T15:17:20.702Z,3.42
2022-11-26T15:19:51.975Z,3.72
2022-11-26T15:22:38.625Z,2.30
2022-11-26T15:25:15.682Z,3.30
2022-11-26T15:27:54.826Z,2.60
2022-11-26T15:30:30.256Z,2.92
2022-11-26T15:32:58.366Z,2.88
2022-11-26T15:35:25.994Z,3.63
2022-11-26T15:38:05.675Z,3.65
2022-11-26T15:40:52.106Z,3.55
2022-11-26T15:43:36.998Z,4.07
2022-11-26T15:46:16.367Z,3.70
2022-11-26T15:48:52.103Z,4.50
2022-11-26T15:51:52.133Z,4.22
2022-11-26T15:54:38.356Z,2.97
2022-11-26T15:57:35.444Z,3.30
2022-11-26T16:00:07.763Z,3.17
2022-11-26T16:02:38.805Z,3.75
2022-11-26T16:05:24.268Z,3.42
2022-11-26T16:08:04.717Z,4.13
2022-11-26T16:10:37.219Z,4.18
2022-11-26T16:13:15.703Z,3.55
2022-11-26T16:15:51.247Z,3.72
2022-11-26T16:18:23.560Z,3.10
2022-11-26T16:20:51.074Z,5.68
2022-11-26T16:23:29.736Z,3.47
2022-11-26T16:26:10.151Z,5.32
2022-11-26T16:28:37.923Z,4.30
2022-11-26T16:31:05.560Z,5.38
2022-11-26T16:33:32.973Z,4.43
2022-11-26T16:36:01.112Z,4.00
2022-11-26T16:38:29.584Z,3.35
2022-11-26T16:40:56.739Z,3.25
2022-11-26T16:43:24.202Z,4.10
2022-11-26T16:45:55.811Z,3.70
2022-11-26T16:48:26.075Z,4.00
2022-11-26T16:50:57.120Z,4.75
2022-11-26T16:53:24.891Z,4.28
2022-11-26T16:55:53.975Z,4.07
2022-11-26T16:58:28.349Z,3.10
2022-11-26T17:01:14.849Z,4.57
2022-11-26T17:03:48.241Z,3.22
2022-11-26T17:06:46.560Z,5.22
2022-11-26T17:09:22.606Z,5.05
2022-11-26T17:11:50.385Z,3.42
2022-11-26T17:14:18.209Z,3.95
2022-11-26T17:16:45.908Z,4.88
2022-11-26T17:19:15.273Z,3.42
2022-11-26T17:21:42.911Z,4.05
2022-11-26T17:24:10.263Z,5.22
2022-11-26T17:26:37.918Z,4.13
2022-11-26T17:29:05.183Z,6.15
2022-11-26T17:31:36.949Z,4.13
2022-11-26T17:34:06.500Z,3.97
2022-11-26T17:36:36.847Z,5.10
2022-11-26T17:39:04.642Z,3.70
2022-11-26T17:41:31.983Z,3.58
2022-11-26T17:43:59.767Z,3.63
2022-11-26T17:46:31.248Z,3.38
2022-11-26T17:49:02.950Z,3.80
2022-11-26T17:51:30.282Z,5.03
2022-11-26T17:53:57.910Z,3.80
2022-11-26T17:56:27.146Z,2.85
2022-11-26T17:58:55.222Z,2.92
2022-11-26T18:01:26.802Z,4.40
2022-11-26T18:03:54.863Z,2.75
2022-11-26T18:06:54.068Z,3.50
2022-11-26T18:09:21.576Z,4.03
2022-11-26T18:11:52.340Z,3.75
2022-11-26T18:14:20.267Z,4.60
2022-11-26T18:16:48.194Z,4.00
2022-11-26T18:19:17.632Z,2.95
2022-11-26T18:21:45.910Z,4.80
2022-11-26T18:24:14.466Z,3.88
2022-11-26T18:26:41.881Z,4.35
2022-11-26T18:29:10.264Z,4.55
2022-11-26T18:31:39.891Z,4.05
2022-11-26T18:34:08.724Z,5.40
2022-11-26T18:36:35.997Z,3.53
2022-11-26T18:39:04.808Z,3.53
2022-11-26T18:41:32.490Z,3.78
2022-11-26T18:44:01.357Z,4.07
2022-11-26T18:46:28.562Z,5.63
2022-11-26T18:48:57.814Z,3.65
2022-11-26T18:51:25.652Z,3.95
2022-11-26T18:53:53.388Z,4.40
2022-11-26T18:56:23.209Z,6.78
2022-11-26T18:58:51.162Z,3.85
2022-11-26T19:01:27.841Z,5.80
2022-11-26T19:03:56.679Z,3.03
2022-11-26T19:06:27.049Z,3.22
2022-11-26T19:09:00.503Z,5.05
2022-11-26T19:15:17.129Z,3.92
2022-11-26T19:17:44.571Z,4.30
2022-11-26T19:20:14.142Z,4.90
2022-11-26T19:22:41.603Z,3.90
2022-11-26T19:25:09.242Z,3.13
2022-11-26T19:27:36.570Z,2.75
2022-11-26T19:30:04.623Z,3.85
2022-11-26T19:32:32.085Z,4.10
2022-11-26T19:35:05.379Z,3.30
2022-11-26T19:37:33.259Z,3.90
2022-11-26T19:40:00.563Z,4.45
2022-11-26T19:42:30.103Z,2.95
2022-11-26T19:44:57.273Z,3.38
2022-11-26T19:47:24.712Z,3.97
2022-11-26T19:49:51.999Z,6.10
2022-11-26T19:52:19.271Z,5.72
2022-11-26T19:55:06.076Z,4.10
2022-11-26T19:57:33.567Z,6.05
2022-11-26T20:00:00.853Z,3.72
2022-11-26T20:02:28.406Z,2.85
2022-11-26T20:04:56.626Z,2.95
2022-11-26T20:07:24.038Z,3.65
2022-11-26T20:09:52.534Z,3.90
2022-11-26T20:12:20.095Z,3.00
2022-11-26T20:14:48.120Z,3.15
2022-11-26T20:17:15.820Z,3.30
2022-11-26T20:19:43.129Z,5.60
2022-11-26T20:22:10.420Z,4.50
2022-11-26T20:24:37.577Z,4.75
2022-11-26T20:27:04.963Z,5.15
2022-11-26T20:29:32.134Z,2.90
2022-11-26T20:32:26.632Z,3.45
2022-11-26T20:34:53.952Z,3.33
2022-11-26T20:37:21.181Z,3.67
2022-11-26T20:39:48.699Z,4.38
2022-11-26T20:42:15.990Z,5.38
2022-11-26T20:44:43.334Z,3.63
2022-11-26T20:47:12.822Z,3.80
2022-11-26T20:49:42.838Z,4.68
2022-11-26T20:52:10.864Z,4.65
2022-11-26T20:54:38.097Z,6.15
2022-11-26T20:57:06.978Z,5.10
2022-11-26T20:59:34.153Z,3.90
2022-11-26T21:02:01.419Z,5.03
2022-11-26T21:04:28.760Z,4.78
2022-11-26T21:06:56.008Z,4.68
2022-11-26T21:09:23.184Z,4.07
2022-11-26T21:11:50.450Z,4.80
2022-11-26T21:14:17.730Z,4.03
2022-11-26T21:16:45.173Z,5.15
2022-11-26T21:19:12.981Z,3.45
2022-11-26T21:21:40.595Z,3.72
2022-11-26T21:24:08.430Z,4.25
2022-11-26T21:26:36.026Z,3.78
2022-11-26T21:29:03.650Z,5.72
2022-11-26T21:31:32.347Z,4.55
2022-11-26T21:34:03.766Z,4.50
2022-11-26T21:36:33.340Z,3.95
2022-11-26T21:39:00.843Z,3.80
2022-11-26T21:41:28.725Z,3.42
2022-11-26T21:43:56.216Z,4.38
2022-11-26T21:46:26.435Z,3.38
2022-11-26T21:48:55.012Z,3.70
2022-11-26T21:51:23.444Z,3.35
2022-11-26T21:53:50.799Z,4.47
2022-11-26T21:56:22.917Z,5.45
2022-11-26T21:58:50.972Z,3.63
2022-11-26T22:01:33.823Z,5.82
2022-11-26T22:04:04.569Z,5.30
2022-11-26T22:06:32.201Z,4.45
2022-11-26T22:12:18.252Z,4.50
2022-11-26T22:14:47.969Z,4.22
2022-11-26T22:17:15.940Z,3.55
2022-11-26T22:19:43.243Z,4.75
2022-11-26T22:22:10.405Z,3.88
2022-11-26T22:24:37.662Z,4.55
2022-11-26T22:27:05.682Z,3.88
2022-11-26T22:29:33.036Z,3.42
2022-11-26T22:32:00.206Z,4.18
2022-11-26T22:34:29.139Z,3.33
2022-11-26T22:36:56.339Z,4.00
2022-11-26T22:39:23.701Z,3.83
2022-11-26T22:41:50.781Z,4.43
2022-11-26T22:44:18.712Z,5.47
2022-11-26T22:46:45.948Z,4.60
2022-11-26T22:49:15.894Z,3.55
2022-11-26T22:51:43.565Z,3.72
2022-11-26T22:54:13.128Z,2.83
2022-11-26T22:56:40.494Z,4.72
2022-11-26T22:59:09.084Z,4.75
2022-11-26T23:01:37.506Z,3.38
2022-11-26T23:04:07.887Z,4.55
2022-11-26T23:06:36.256Z,3.38
2022-11-26T23:09:06.197Z,3.70
2022-11-26T23:11:40.528Z,3.92
2022-11-26T23:14:09.666Z,4.60
2022-11-26T23:16:39.556Z,5.07
2022-11-26T23:19:07.333Z,3.67
2022-11-26T23:21:39.814Z,4.40
2022-11-26T23:24:08.036Z,3.45
2022-11-26T23:26:36.947Z,5.82
2022-11-26T23:29:05.296Z,5.35
2022-11-26T23:31:38.410Z,4.65
2022-11-26T23:34:06.542Z,4.70
2022-11-26T23:36:34.816Z,5.13
2022-11-26T23:39:03.888Z,5.18
2022-11-26T23:41:31.317Z,2.75
2022-11-26T23:43:58.790Z,2.92
2022-11-26T23:46:28.890Z,3.53
2022-11-26T23:48:56.328Z,2.97
2022-11-26T23:51:26.840Z,4.65
2022-11-26T23:53:54.277Z,3.22
2022-11-26T23:56:25.288Z,3.55
2022-11-26T23:58:54.832Z,2.47
